createdAt,value
2022-09-07T00:01:24.132Z,2.22
2022-09-07T00:03:55.415Z,1.88
2022-09-07T00:06:22.981Z,2.60
2022-09-07T00:08:51.853Z,2.45
2022-09-07T00:11:19.942Z,3.05
2022-09-07T00:13:49.489Z,2.13
2022-09-07T00:16:29.621Z,2.10
2022-09-07T00:19:01.650Z,2.13
2022-09-07T00:21:28.655Z,2.22
2022-09-07T00:23:55.577Z,2.47
2022-09-07T00:26:28.009Z,2.90
2022-09-07T00:29:03.051Z,2.20
2022-09-07T00:31:32.489Z,2.45
2022-09-07T00:34:01.997Z,2.97
2022-09-07T00:36:32.145Z,2.85
2022-09-07T00:39:03.009Z,2.85
2022-09-07T00:41:45.920Z,4.07
2022-09-07T00:44:43.934Z,3.78
2022-09-07T00:47:23.680Z,3.42
2022-09-07T00:49:57.518Z,4.70
2022-09-07T00:54:55.878Z,5.40
2022-09-07T00:57:23.153Z,6.10
2022-09-07T00:59:53.834Z,6.40
2022-09-07T01:02:23.880Z,6.80
2022-09-07T01:04:56.350Z,6.22
2022-09-07T01:07:23.661Z,6.68
2022-09-07T01:09:50.833Z,7.88
2022-09-07T01:12:17.701Z,7.10
2022-09-07T01:14:48.450Z,6.28
2022-09-07T01:17:34.094Z,6.43
2022-09-07T01:20:22.919Z,6.68
2022-09-07T01:23:08.052Z,5.07
2022-09-07T01:26:09.750Z,3.08
2022-09-07T01:28:37.977Z,2.95
2022-09-07T01:31:38.303Z,2.95
2022-09-07T01:34:16.230Z,2.80
2022-09-07T01:37:12.632Z,2.45
2022-09-07T01:39:53.539Z,2.30
2022-09-07T01:42:28.158Z,2.00
2022-09-07T01:45:03.994Z,1.98
2022-09-07T01:47:39.992Z,2.20
2022-09-07T01:50:18.862Z,2.20
2022-09-07T01:53:02.977Z,1.80
2022-09-07T01:55:35.448Z,2.03
2022-09-07T01:58:07.941Z,2.10
2022-09-07T02:00:37.352Z,2.40
2022-09-07T02:03:28.890Z,2.25
2022-09-07T02:06:09.949Z,2.90
2022-09-07T02:09:02.841Z,2.17
2022-09-07T02:11:42.810Z,2.40
2022-09-07T02:14:34.548Z,2.42
2022-09-07T02:17:34.086Z,1.98
2022-09-07T02:20:12.153Z,2.55
2022-09-07T02:22:46.453Z,2.08
2022-09-07T02:25:21.659Z,1.88
2022-09-07T02:28:07.057Z,2.28
2022-09-07T02:30:34.010Z,2.30
2022-09-07T02:33:01.170Z,2.30
2022-09-07T02:35:52.771Z,2.00
2022-09-07T02:38:19.876Z,2.17
2022-09-07T02:40:52.241Z,1.92
2022-09-07T02:43:21.258Z,2.13
2022-09-07T02:45:57.561Z,2.25
2022-09-07T02:48:38.780Z,2.35
2022-09-07T02:51:46.811Z,2.17
2022-09-07T02:54:13.799Z,2.75
2022-09-07T02:57:36.625Z,2.58
2022-09-07T03:00:12.059Z,2.80
2022-09-07T03:03:00.223Z,2.85
2022-09-07T03:05:44.480Z,3.00
2022-09-07T03:08:25.622Z,2.92
2022-09-07T03:10:56.186Z,2.83
2022-09-07T03:13:48.865Z,2.83
2022-09-07T03:16:16.440Z,2.78
2022-09-07T03:18:43.885Z,2.53
2022-09-07T03:21:12.027Z,2.72
2022-09-07T03:23:42.133Z,2.80
2022-09-07T03:26:34.021Z,3.15
2022-09-07T03:29:14.402Z,2.58
2022-09-07T03:31:43.703Z,3.50
2022-09-07T03:34:10.914Z,3.30
2022-09-07T03:36:39.845Z,3.72
2022-09-07T03:39:24.110Z,2.72
2022-09-07T03:41:50.958Z,2.63
2022-09-07T03:44:17.888Z,3.05
2022-09-07T03:46:50.465Z,2.65
2022-09-07T03:49:17.411Z,2.97
2022-09-07T03:51:46.291Z,2.90
2022-09-07T03:54:13.098Z,2.60
2022-09-07T03:56:43.149Z,2.92
2022-09-07T03:59:10.024Z,3.13
2022-09-07T04:01:46.024Z,2.80
2022-09-07T04:04:12.994Z,2.30
2022-09-07T04:06:41.906Z,2.70
2022-09-07T04:09:11.808Z,2.67
2022-09-07T04:11:43.080Z,2.55
2022-09-07T04:14:11.393Z,2.05
2022-09-07T04:16:38.625Z,2.85
2022-09-07T04:19:07.644Z,3.28
2022-09-07T04:21:34.577Z,2.72
2022-09-07T04:24:01.529Z,2.55
2022-09-07T04:26:56.539Z,2.95
2022-09-07T04:29:25.440Z,2.72
2022-09-07T04:31:52.357Z,2.63
2022-09-07T04:34:19.153Z,2.33
2022-09-07T04:36:56.035Z,2.83
2022-09-07T04:39:30.839Z,2.75
2022-09-07T04:41:57.688Z,2.35
2022-09-07T04:44:26.489Z,2.72
2022-09-07T04:46:54.255Z,2.78
2022-09-07T04:49:23.080Z,2.50
2022-09-07T04:51:49.944Z,2.88
2022-09-07T04:54:18.337Z,3.45
2022-09-07T04:56:46.209Z,2.83
2022-09-07T04:59:16.681Z,3.42
2022-09-07T05:01:43.678Z,3.33
2022-09-07T05:04:10.469Z,3.60
2022-09-07T05:06:42.300Z,4.65
2022-09-07T05:09:10.782Z,3.13
2022-09-07T05:11:40.795Z,3.67
2022-09-07T05:14:10.118Z,3.10
2022-09-07T05:16:37.001Z,3.85
2022-09-07T05:19:05.483Z,3.55
2022-09-07T05:21:34.277Z,3.05
2022-09-07T05:24:04.144Z,3.17
2022-09-07T05:26:37.060Z,4.75
2022-09-07T05:31:52.571Z,5.05
2022-09-07T05:34:34.750Z,4.88
2022-09-07T05:37:02.798Z,5.25
2022-09-07T05:39:29.918Z,6.07
2022-09-07T05:41:57.023Z,7.10
2022-09-07T05:47:12.781Z,6.45
2022-09-07T05:49:39.790Z,6.95
2022-09-07T05:52:06.912Z,7.63
2022-09-07T05:54:37.989Z,7.38
2022-09-07T05:57:04.973Z,7.07
2022-09-07T05:59:34.225Z,7.25
2022-09-07T06:02:01.335Z,7.57
2022-09-07T06:04:28.204Z,5.95
2022-09-07T06:12:29.655Z,7.47
2022-09-07T06:14:56.609Z,7.25
2022-09-07T06:17:25.713Z,8.05
2022-09-07T06:19:52.627Z,7.70
2022-09-07T06:22:19.392Z,7.53
2022-09-07T06:24:47.228Z,8.52
2022-09-07T06:27:14.076Z,8.80
2022-09-07T06:29:41.438Z,8.90
2022-09-07T06:34:55.183Z,8.45
2022-09-07T06:37:21.924Z,8.65
2022-09-07T06:39:49.323Z,7.05
2022-09-07T06:42:16.710Z,7.15
2022-09-07T06:44:44.589Z,8.85
2022-09-07T06:47:11.499Z,8.00
2022-09-07T06:49:38.355Z,7.68
2022-09-07T06:52:05.183Z,6.15
2022-09-07T06:57:18.784Z,6.80
2022-09-07T06:59:45.697Z,7.35
2022-09-07T07:02:15.694Z,7.05
2022-09-07T07:04:42.728Z,7.45
2022-09-07T07:07:14.123Z,6.78
2022-09-07T07:09:41.767Z,7.25
2022-09-07T07:12:10.114Z,6.95
2022-09-07T07:14:39.618Z,6.22
2022-09-07T07:17:09.622Z,6.68
2022-09-07T07:19:36.498Z,6.82
2022-09-07T07:24:54.195Z,8.73
2022-09-07T07:27:22.206Z,6.57
2022-09-07T07:29:49.919Z,7.07
2022-09-07T07:32:16.693Z,6.60
2022-09-07T07:34:43.536Z,7.97
2022-09-07T07:37:10.302Z,7.88
2022-09-07T07:42:24.068Z,6.68
2022-09-07T07:47:38.316Z,6.70
2022-09-07T07:55:43.626Z,6.05
2022-09-07T07:58:10.788Z,4.88
2022-09-07T08:00:53.367Z,5.57
2022-09-07T08:03:22.368Z,5.57
2022-09-07T08:05:49.174Z,5.03
2022-09-07T08:08:16.025Z,3.90
2022-09-07T08:10:42.886Z,3.40
2022-09-07T08:13:16.288Z,6.45
2022-09-07T08:15:46.699Z,2.83
2022-09-07T08:18:15.968Z,4.63
2022-09-07T08:20:43.521Z,2.70
2022-09-07T08:23:10.580Z,3.25
2022-09-07T08:25:37.352Z,2.30
2022-09-07T08:28:05.380Z,2.67
2022-09-07T08:30:32.096Z,1.98
2022-09-07T08:32:58.948Z,1.80
2022-09-07T08:35:25.750Z,2.25
2022-09-07T08:37:52.537Z,1.70
2022-09-07T08:40:20.344Z,0.98
2022-09-07T08:43:24.007Z,4.95
2022-09-07T08:45:54.525Z,2.10
2022-09-07T08:48:32.759Z,2.03
2022-09-07T08:51:02.237Z,3.88
2022-09-07T08:53:29.578Z,1.40
2022-09-07T08:56:00.787Z,2.78
2022-09-07T08:58:49.115Z,4.38
2022-09-07T09:01:31.482Z,1.02
2022-09-07T09:06:56.740Z,1.30
2022-09-07T09:09:43.493Z,0.73
2022-09-07T09:12:42.936Z,1.10
2022-09-07T09:15:26.335Z,1.50
2022-09-07T09:18:31.529Z,0.85
2022-09-07T09:21:00.017Z,1.02
2022-09-07T09:23:31.390Z,0.85
2022-09-07T09:26:16.676Z,1.15
2022-09-07T09:28:43.781Z,1.13
2022-09-07T09:31:22.140Z,0.70
2022-09-07T09:34:11.174Z,0.88
2022-09-07T09:36:53.016Z,1.55
2022-09-07T09:39:34.258Z,1.10
2022-09-07T09:42:23.767Z,0.90
2022-09-07T09:44:51.622Z,1.17
2022-09-07T09:47:30.865Z,1.35
2022-09-07T09:50:07.035Z,1.88
2022-09-07T09:52:45.406Z,1.40
2022-09-07T09:55:34.890Z,0.88
2022-09-07T10:01:21.731Z,1.55
2022-09-07T10:06:22.494Z,0.95
2022-09-07T10:09:00.263Z,0.77
2022-09-07T10:12:08.537Z,1.00
2022-09-07T10:14:45.600Z,0.65
2022-09-07T10:17:35.843Z,1.08
2022-09-07T10:20:31.338Z,0.80
2022-09-07T10:22:59.462Z,1.05
2022-09-07T10:25:37.901Z,1.13
2022-09-07T10:28:13.259Z,1.23
2022-09-07T10:31:14.532Z,1.33
2022-09-07T10:36:44.467Z,2.08
2022-09-07T10:40:03.379Z,1.25
2022-09-07T10:42:36.465Z,2.80
2022-09-07T10:45:06.416Z,3.05
2022-09-07T10:48:01.199Z,1.15
2022-09-07T10:50:39.574Z,0.73
2022-09-07T10:53:40.834Z,0.90
2022-09-07T10:56:27.975Z,1.48
2022-09-07T10:59:26.747Z,1.35
2022-09-07T11:02:21.150Z,1.65
2022-09-07T11:04:56.510Z,1.15
2022-09-07T11:07:58.776Z,1.02
2022-09-07T11:11:05.209Z,1.30
2022-09-07T11:13:55.680Z,0.90
2022-09-07T11:19:41.270Z,1.05
2022-09-07T11:22:36.234Z,0.88
2022-09-07T11:25:35.401Z,0.88
2022-09-07T11:28:25.573Z,1.10
2022-09-07T11:31:01.642Z,0.80
2022-09-07T11:37:01.198Z,1.00
2022-09-07T11:39:36.214Z,1.23
2022-09-07T11:45:18.498Z,1.25
2022-09-07T11:47:57.738Z,0.90
2022-09-07T11:50:28.644Z,0.80
2022-09-07T11:53:14.320Z,0.63
2022-09-07T11:55:48.216Z,0.60
2022-09-07T11:58:36.349Z,0.60
2022-09-07T12:01:21.199Z,0.85
2022-09-07T12:04:06.529Z,0.55
2022-09-07T12:06:43.402Z,0.80
2022-09-07T12:09:39.630Z,1.75
2022-09-07T12:12:34.123Z,2.10
2022-09-07T12:15:19.704Z,0.95
2022-09-07T12:18:27.309Z,0.70
2022-09-07T12:20:57.131Z,0.70
2022-09-07T12:23:29.167Z,0.98
2022-09-07T12:26:34.724Z,1.25
2022-09-07T12:29:01.403Z,2.22
2022-09-07T12:31:57.856Z,1.30
2022-09-07T12:34:31.872Z,0.93
2022-09-07T12:37:00.115Z,0.90
2022-09-07T12:39:32.909Z,0.70
2022-09-07T12:45:29.746Z,1.05
2022-09-07T12:47:58.313Z,1.00
2022-09-07T12:50:29.632Z,0.50
2022-09-07T12:53:27.419Z,0.85
2022-09-07T12:56:20.487Z,0.85
2022-09-07T12:59:21.259Z,1.90
2022-09-07T13:02:10.077Z,1.48
2022-09-07T13:05:01.560Z,0.95
2022-09-07T13:07:40.166Z,0.70
2022-09-07T13:10:42.694Z,0.73
2022-09-07T13:13:15.312Z,0.88
2022-09-07T13:15:44.908Z,0.50
2022-09-07T13:18:35.100Z,0.40
2022-09-07T13:21:07.994Z,0.82
2022-09-07T13:23:39.581Z,0.93
2022-09-07T13:26:10.449Z,1.10
2022-09-07T13:28:57.970Z,0.77
2022-09-07T13:31:40.205Z,1.00
2022-09-07T13:34:32.565Z,1.45
2022-09-07T13:37:02.475Z,0.80
2022-09-07T13:39:42.886Z,0.70
2022-09-07T13:42:17.580Z,1.08
2022-09-07T13:45:01.308Z,0.93
2022-09-07T13:47:52.919Z,1.13
2022-09-07T13:50:58.454Z,0.80
2022-09-07T13:53:44.899Z,0.82
2022-09-07T13:56:34.598Z,1.20
2022-09-07T13:59:28.771Z,1.42
2022-09-07T14:01:57.179Z,1.38
2022-09-07T14:04:37.105Z,1.20
2022-09-07T14:07:15.719Z,1.20
2022-09-07T14:10:36.201Z,1.05
2022-09-07T14:13:28.079Z,2.75
2022-09-07T14:16:08.828Z,1.30
2022-09-07T14:18:40.409Z,0.80
2022-09-07T14:21:09.597Z,0.73
2022-09-07T14:23:38.810Z,0.70
2022-09-07T14:26:18.253Z,1.13
2022-09-07T14:28:48.398Z,1.25
2022-09-07T14:31:19.736Z,2.47
2022-09-07T14:33:52.027Z,4.78
2022-09-07T14:36:42.407Z,1.02
2022-09-07T14:39:12.093Z,0.80
2022-09-07T14:41:41.318Z,0.80
2022-09-07T14:44:33.927Z,1.05
2022-09-07T14:47:05.928Z,0.88
2022-09-07T14:49:33.532Z,0.95
2022-09-07T14:52:00.704Z,1.17
2022-09-07T14:54:33.907Z,1.40
2022-09-07T14:57:24.659Z,1.13
2022-09-07T14:59:53.811Z,0.73
2022-09-07T15:02:29.991Z,1.15
2022-09-07T15:05:20.531Z,0.75
2022-09-07T15:07:52.706Z,0.43
2022-09-07T15:10:21.456Z,0.40
2022-09-07T15:12:54.306Z,1.00
2022-09-07T15:15:37.140Z,0.82
2022-09-07T15:18:25.747Z,1.02
2022-09-07T15:20:53.045Z,1.30
2022-09-07T15:23:20.353Z,0.52
2022-09-07T15:25:53.704Z,1.20
2022-09-07T15:34:16.070Z,0.90
2022-09-07T15:36:52.204Z,0.57
2022-09-07T15:39:22.889Z,0.65
2022-09-07T15:41:51.658Z,0.90
2022-09-07T15:44:22.865Z,0.40
2022-09-07T15:49:39.935Z,0.57
2022-09-07T15:52:09.004Z,0.80
2022-09-07T15:54:39.558Z,0.65
2022-09-07T15:59:53.586Z,0.75
2022-09-07T16:05:08.354Z,0.60
2022-09-07T16:10:22.187Z,1.17
2022-09-07T16:13:11.203Z,1.08
2022-09-07T16:15:45.191Z,1.02
2022-09-07T16:18:16.502Z,0.77
2022-09-07T16:20:44.169Z,0.85
2022-09-07T16:23:14.308Z,0.98
2022-09-07T16:25:43.226Z,0.82
2022-09-07T16:28:11.430Z,1.00
2022-09-07T16:30:41.372Z,0.70
2022-09-07T16:33:08.947Z,0.82
2022-09-07T16:35:35.725Z,1.00
2022-09-07T16:40:50.934Z,1.08
2022-09-07T16:43:18.019Z,0.73
2022-09-07T16:48:35.391Z,1.70
2022-09-07T16:51:06.240Z,1.00
2022-09-07T16:53:35.353Z,0.93
2022-09-07T16:56:08.213Z,0.95
2022-09-07T16:58:38.506Z,1.13
2022-09-07T17:01:21.152Z,1.45
2022-09-07T17:03:52.545Z,1.20
2022-09-07T17:06:21.352Z,1.23
2022-09-07T17:08:48.014Z,1.50
2022-09-07T17:11:17.855Z,1.25
2022-09-07T17:13:45.152Z,1.00
2022-09-07T17:16:17.510Z,1.42
2022-09-07T17:21:35.367Z,0.95
2022-09-07T17:24:04.253Z,0.98
2022-09-07T17:26:32.155Z,1.13
2022-09-07T17:29:00.815Z,0.82
2022-09-07T17:34:18.422Z,1.63
2022-09-07T17:36:45.337Z,0.90
2022-09-07T17:39:17.218Z,0.75
2022-09-07T17:41:52.776Z,0.98
2022-09-07T17:44:20.110Z,0.93
2022-09-07T17:46:46.898Z,1.38
2022-09-07T17:49:16.364Z,0.95
2022-09-07T17:51:44.321Z,0.77
2022-09-07T17:54:14.611Z,1.00
2022-09-07T17:56:42.372Z,1.33
2022-09-07T18:02:01.142Z,1.73
2022-09-07T18:04:29.204Z,1.00
2022-09-07T18:06:56.285Z,1.15
2022-09-07T18:09:23.255Z,1.17
2022-09-07T18:11:50.776Z,0.57
2022-09-07T18:14:19.586Z,1.42
2022-09-07T18:16:49.355Z,1.02
2022-09-07T18:19:17.945Z,1.30
2022-09-07T18:21:45.824Z,0.90
2022-09-07T18:24:20.357Z,1.05
2022-09-07T18:26:51.484Z,1.10
2022-09-07T18:29:37.446Z,1.70
2022-09-07T18:32:09.352Z,1.30
2022-09-07T18:34:38.161Z,1.15
2022-09-07T18:37:06.931Z,1.60
2022-09-07T18:39:35.376Z,1.10
2022-09-07T18:42:03.983Z,1.10
2022-09-07T18:47:23.277Z,0.98
2022-09-07T18:49:56.010Z,1.70
2022-09-07T18:55:14.505Z,1.33
2022-09-07T18:57:41.811Z,1.30
2022-09-07T19:00:09.809Z,1.23
2022-09-07T19:02:38.322Z,1.50
2022-09-07T19:07:52.547Z,1.20
2022-09-07T19:10:19.340Z,1.38
2022-09-07T19:12:46.636Z,1.20
2022-09-07T19:15:14.389Z,0.93
2022-09-07T19:17:41.193Z,1.40
2022-09-07T19:20:08.453Z,1.30
2022-09-07T19:22:35.245Z,1.30
2022-09-07T19:25:02.031Z,1.75
2022-09-07T19:27:29.054Z,1.25
2022-09-07T19:29:56.067Z,1.48
2022-09-07T19:32:23.094Z,1.23
2022-09-07T19:34:54.353Z,1.70
2022-09-07T19:37:25.698Z,1.33
2022-09-07T19:39:56.539Z,1.80
2022-09-07T19:42:24.344Z,1.20
2022-09-07T19:44:56.406Z,2.03
2022-09-07T19:47:23.953Z,1.63
2022-09-07T19:49:52.168Z,1.10
2022-09-07T19:52:19.188Z,2.10
2022-09-07T19:54:46.477Z,2.53
2022-09-07T19:57:17.267Z,1.00
2022-09-07T19:59:50.666Z,1.33
2022-09-07T20:02:18.073Z,1.38
2022-09-07T20:04:45.365Z,1.25
2022-09-07T20:07:13.840Z,0.77
2022-09-07T20:09:42.866Z,0.90
2022-09-07T20:12:10.597Z,1.35
2022-09-07T20:14:40.863Z,1.50
2022-09-07T20:17:08.069Z,1.17
2022-09-07T20:19:35.625Z,0.90
2022-09-07T20:22:03.260Z,1.65
2022-09-07T20:24:32.130Z,0.90
2022-09-07T20:26:59.642Z,1.38
2022-09-07T20:29:28.535Z,1.33
2022-09-07T20:32:00.995Z,1.13
2022-09-07T20:34:29.307Z,0.95
2022-09-07T20:36:56.859Z,1.27
2022-09-07T20:39:24.008Z,1.50
2022-09-07T20:41:51.176Z,1.70
2022-09-07T20:44:18.426Z,1.33
2022-09-07T20:46:45.410Z,1.35
2022-09-07T20:49:14.596Z,1.38
2022-09-07T20:51:41.507Z,1.35
2022-09-07T20:54:10.044Z,1.67
2022-09-07T20:56:36.749Z,1.13
2022-09-07T20:59:04.289Z,1.30
2022-09-07T21:01:33.209Z,1.55
2022-09-07T21:04:01.151Z,1.25
2022-09-07T21:06:29.573Z,1.17
2022-09-07T21:08:57.301Z,1.65
2022-09-07T21:11:31.202Z,1.20
2022-09-07T21:14:07.452Z,1.88
2022-09-07T21:16:35.885Z,1.20
2022-09-07T21:19:05.590Z,1.30
2022-09-07T21:21:38.713Z,1.33
2022-09-07T21:24:07.022Z,1.23
2022-09-07T21:26:34.021Z,1.10
2022-09-07T21:29:03.591Z,1.65
2022-09-07T21:31:31.849Z,1.65
2022-09-07T21:34:00.404Z,1.15
2022-09-07T21:36:27.822Z,1.15
2022-09-07T21:38:54.902Z,1.13
2022-09-07T21:41:23.589Z,0.98
2022-09-07T21:43:58.175Z,1.38
2022-09-07T21:46:26.250Z,1.45
2022-09-07T21:48:54.738Z,1.10
2022-09-07T21:51:22.162Z,1.25
2022-09-07T21:53:57.129Z,0.98
2022-09-07T21:56:24.558Z,1.00
2022-09-07T21:58:55.416Z,0.98
2022-09-07T22:01:23.772Z,0.90
2022-09-07T22:03:56.336Z,1.00
2022-09-07T22:06:23.776Z,1.42
2022-09-07T22:08:50.755Z,1.23
2022-09-07T22:11:20.567Z,1.30
2022-09-07T22:13:47.492Z,0.57
2022-09-07T22:16:15.663Z,1.00
2022-09-07T22:18:44.449Z,0.70
2022-09-07T22:21:13.417Z,0.63
2022-09-07T22:23:47.340Z,0.85
2022-09-07T22:26:15.309Z,0.90
2022-09-07T22:28:42.108Z,0.77
2022-09-07T22:31:13.616Z,1.10
2022-09-07T22:33:41.866Z,1.02
2022-09-07T22:36:11.356Z,0.70
2022-09-07T22:38:39.173Z,0.50
2022-09-07T22:41:07.337Z,0.73
2022-09-07T22:43:34.440Z,1.13
2022-09-07T22:46:02.549Z,0.60
2022-09-07T22:48:29.876Z,0.80
2022-09-07T22:50:59.923Z,0.88
2022-09-07T22:53:28.461Z,0.80
2022-09-07T22:55:56.598Z,0.68
2022-09-07T22:58:23.776Z,0.90
2022-09-07T23:00:52.765Z,0.60
2022-09-07T23:03:19.651Z,0.63
2022-09-07T23:05:46.833Z,0.77
2022-09-07T23:08:13.662Z,0.68
2022-09-07T23:10:40.503Z,0.98
2022-09-07T23:13:08.976Z,0.63
2022-09-07T23:15:36.371Z,0.35
2022-09-07T23:18:03.389Z,0.57
2022-09-07T23:20:30.203Z,0.70
2022-09-07T23:22:56.935Z,0.60
2022-09-07T23:25:23.652Z,0.70
2022-09-07T23:27:50.397Z,0.60
2022-09-07T23:30:17.162Z,0.63
2022-09-07T23:32:43.818Z,0.68
2022-09-07T23:35:14.785Z,0.73
2022-09-07T23:37:43.530Z,0.30
2022-09-07T23:40:11.157Z,0.63
2022-09-07T23:42:38.043Z,0.50
2022-09-07T23:45:07.279Z,0.55
2022-09-07T23:47:35.081Z,1.35
2022-09-07T23:50:03.184Z,0.55
2022-09-07T23:52:29.992Z,0.50
2022-09-07T23:54:56.729Z,0.82
2022-09-07T23:57:23.693Z,0.85
2022-09-07T23:59:50.431Z,1.00
